sensor_id;sensor_type;location;lat;lon;timestamp;temperature;humidity
19728;DHT22;10015;52.530;13.390;2023-05-21T00:02:16;17.70;99.90
19728;DHT22;10015;52.530;13.390;2023-05-21T00:04:43;17.70;99.90
19728;DHT22;10015;52.530;13.390;2023-05-21T00:07:10;17.80;99.90
19728;DHT22;10015;52.530;13.390;2023-05-21T00:09:36;17.70;99.90
19728;DHT22;10015;52.530;13.390;2023-05-21T00:12:06;17.70;99.90
19728;DHT22;10015;52.530;13.390;2023-05-21T00:14:33;17.70;99.90
19728;DHT22;10015;52.530;13.390;2023-05-21T00:16:59;17.70;99.90
19728;DHT22;10015;52.530;13.390;2023-05-21T00:19:25;17.60;99.90
19728;DHT22;10015;52.530;13.390;2023-05-21T00:21:52;17.60;99.90
19728;DHT22;10015;52.530;13.390;2023-05-21T00:24:18;17.70;99.90
19728;DHT22;10015;52.530;13.390;2023-05-21T00:26:43;17.70;99.90
19728;DHT22;10015;52.530;13.390;2023-05-21T00:29:09;17.60;99.90
19728;DHT22;10015;52.530;13.390;2023-05-21T00:31:35;17.60;99.90
19728;DHT22;10015;52.530;13.390;2023-05-21T00:34:01;17.60;99.90
19728;DHT22;10015;52.530;13.390;2023-05-21T00:36:27;17.60;99.90
19728;DHT22;10015;52.530;13.390;2023-05-21T00:38:53;17.60;99.90
19728;DHT22;10015;52.530;13.390;2023-05-21T00:41:21;17.50;99.90
19728;DHT22;10015;52.530;13.390;2023-05-21T00:43:50;17.50;99.90
19728;DHT22;10015;52.530;13.390;2023-05-21T00:46:20;17.60;99.90
19728;DHT22;10015;52.530;13.390;2023-05-21T00:48:47;17.60;99.90
19728;DHT22;10015;52.530;13.390;2023-05-21T00:51:15;17.50;99.90
19728;DHT22;10015;52.530;13.390;2023-05-21T00:53:42;17.50;99.90
19728;DHT22;10015;52.530;13.390;2023-05-21T00:56:08;17.50;99.90
19728;DHT22;10015;52.530;13.390;2023-05-21T00:58:35;17.50;99.90
19728;DHT22;10015;52.530;13.390;2023-05-21T01:01:01;17.50;99.90
19728;DHT22;10015;52.530;13.390;2023-05-21T01:03:32;17.40;99.90
19728;DHT22;10015;52.530;13.390;2023-05-21T01:06:07;17.50;99.90
19728;DHT22;10015;52.530;13.390;2023-05-21T01:08:34;17.50;99.90
19728;DHT22;10015;52.530;13.390;2023-05-21T01:11:04;17.40;99.90
19728;DHT22;10015;52.530;13.390;2023-05-21T01:13:32;17.50;99.90
19728;DHT22;10015;52.530;13.390;2023-05-21T01:15:59;17.50;99.90
19728;DHT22;10015;52.530;13.390;2023-05-21T01:18:26;17.50;99.90
19728;DHT22;10015;52.530;13.390;2023-05-21T01:20:52;17.50;99.90
19728;DHT22;10015;52.530;13.390;2023-05-21T01:23:19;17.50;99.90
19728;DHT22;10015;52.530;13.390;2023-05-21T01:25:45;17.40;99.90
19728;DHT22;10015;52.530;13.390;2023-05-21T01:28:12;17.40;99.90
19728;DHT22;10015;52.530;13.390;2023-05-21T01:30:40;17.40;99.90
19728;DHT22;10015;52.530;13.390;2023-05-21T01:33:35;17.40;99.90
19728;DHT22;10015;52.530;13.390;2023-05-21T01:36:20;17.40;99.90
19728;DHT22;10015;52.530;13.390;2023-05-21T01:39:00;17.30;99.90
19728;DHT22;10015;52.530;13.390;2023-05-21T01:41:28;17.40;99.90
19728;DHT22;10015;52.530;13.390;2023-05-21T01:43:58;17.30;99.90
19728;DHT22;10015;52.530;13.390;2023-05-21T01:46:26;17.30;99.90
19728;DHT22;10015;52.530;13.390;2023-05-21T01:48:55;17.30;99.90
19728;DHT22;10015;52.530;13.390;2023-05-21T01:51:23;17.30;99.90
19728;DHT22;10015;52.530;13.390;2023-05-21T01:53:49;17.40;99.90
19728;DHT22;10015;52.530;13.390;2023-05-21T01:56:15;17.40;99.90
19728;DHT22;10015;52.530;13.390;2023-05-21T01:58:41;17.30;99.90
19728;DHT22;10015;52.530;13.390;2023-05-21T02:01:08;17.30;99.90
19728;DHT22;10015;52.530;13.390;2023-05-21T02:03:35;17.30;99.90
19728;DHT22;10015;52.530;13.390;2023-05-21T02:06:01;17.30;99.90
19728;DHT22;10015;52.530;13.390;2023-05-21T02:08:27;17.20;99.90
19728;DHT22;10015;52.530;13.390;2023-05-21T02:10:54;17.30;99.90
19728;DHT22;10015;52.530;13.390;2023-05-21T02:13:20;17.30;99.90
19728;DHT22;10015;52.530;13.390;2023-05-21T02:15:47;17.30;99.90
19728;DHT22;10015;52.530;13.390;2023-05-21T02:18:13;17.30;99.90
19728;DHT22;10015;52.530;13.390;2023-05-21T02:20:43;17.20;99.90
19728;DHT22;10015;52.530;13.390;2023-05-21T02:23:09;17.30;99.90
19728;DHT22;10015;52.530;13.390;2023-05-21T02:25:35;17.20;99.90
19728;DHT22;10015;52.530;13.390;2023-05-21T02:28:01;17.20;99.90
19728;DHT22;10015;52.530;13.390;2023-05-21T02:30:27;17.20;99.90
19728;DHT22;10015;52.530;13.390;2023-05-21T02:32:54;17.20;99.90
19728;DHT22;10015;52.530;13.390;2023-05-21T02:35:20;17.10;99.90
19728;DHT22;10015;52.530;13.390;2023-05-21T02:37:45;17.10;99.90
19728;DHT22;10015;52.530;13.390;2023-05-21T02:40:14;17.10;99.90
19728;DHT22;10015;52.530;13.390;2023-05-21T02:42:40;17.00;99.90
19728;DHT22;10015;52.530;13.390;2023-05-21T02:45:11;17.00;99.90
19728;DHT22;10015;52.530;13.390;2023-05-21T02:47:38;17.00;99.90
19728;DHT22;10015;52.530;13.390;2023-05-21T02:50:07;17.00;99.90
19728;DHT22;10015;52.530;13.390;2023-05-21T02:52:37;16.90;99.90
19728;DHT22;10015;52.530;13.390;2023-05-21T02:55:03;16.90;99.90
19728;DHT22;10015;52.530;13.390;2023-05-21T02:57:29;17.00;99.90
19728;DHT22;10015;52.530;13.390;2023-05-21T02:59:55;17.00;99.90
19728;DHT22;10015;52.530;13.390;2023-05-21T03:02:21;16.90;99.90
19728;DHT22;10015;52.530;13.390;2023-05-21T03:04:47;16.90;99.90
19728;DHT22;10015;52.530;13.390;2023-05-21T03:07:15;16.90;99.90
19728;DHT22;10015;52.530;13.390;2023-05-21T03:09:44;16.90;99.90
19728;DHT22;10015;52.530;13.390;2023-05-21T03:12:10;16.90;99.90
19728;DHT22;10015;52.530;13.390;2023-05-21T03:14:36;16.80;99.90
19728;DHT22;10015;52.530;13.390;2023-05-21T03:17:03;16.80;99.90
19728;DHT22;10015;52.530;13.390;2023-05-21T03:19:31;16.70;99.90
19728;DHT22;10015;52.530;13.390;2023-05-21T03:22:03;16.80;99.90
19728;DHT22;10015;52.530;13.390;2023-05-21T03:24:32;16.70;99.90
19728;DHT22;10015;52.530;13.390;2023-05-21T03:27:00;16.70;99.90
19728;DHT22;10015;52.530;13.390;2023-05-21T03:29:26;16.70;99.90
19728;DHT22;10015;52.530;13.390;2023-05-21T03:31:53;16.70;99.90
19728;DHT22;10015;52.530;13.390;2023-05-21T03:34:19;16.70;99.90
19728;DHT22;10015;52.530;13.390;2023-05-21T03:36:46;16.70;99.90
19728;DHT22;10015;52.530;13.390;2023-05-21T03:39:13;16.70;99.90
19728;DHT22;10015;52.530;13.390;2023-05-21T03:41:39;16.80;99.90
19728;DHT22;10015;52.530;13.390;2023-05-21T03:44:08;16.70;99.90
19728;DHT22;10015;52.530;13.390;2023-05-21T03:46:48;16.70;99.90
19728;DHT22;10015;52.530;13.390;2023-05-21T03:49:19;16.80;99.90
19728;DHT22;10015;52.530;13.390;2023-05-21T03:51:47;16.80;99.90
19728;DHT22;10015;52.530;13.390;2023-05-21T03:54:16;16.80;99.90
19728;DHT22;10015;52.530;13.390;2023-05-21T03:56:42;16.80;99.90
19728;DHT22;10015;52.530;13.390;2023-05-21T03:59:08;16.80;99.90
19728;DHT22;10015;52.530;13.390;2023-05-21T04:01:34;16.90;99.90
19728;DHT22;10015;52.530;13.390;2023-05-21T04:04:01;16.90;99.90
19728;DHT22;10015;52.530;13.390;2023-05-21T04:06:28;16.80;99.90
19728;DHT22;10015;52.530;13.390;2023-05-21T04:08:54;16.80;99.90
19728;DHT22;10015;52.530;13.390;2023-05-21T04:11:20;16.90;99.90
19728;DHT22;10015;52.530;13.390;2023-05-21T04:13:47;17.00;99.90
19728;DHT22;10015;52.530;13.390;2023-05-21T04:16:13;17.00;99.90
19728;DHT22;10015;52.530;13.390;2023-05-21T04:18:44;17.10;99.90
19728;DHT22;10015;52.530;13.390;2023-05-21T04:21:10;17.20;99.90
19728;DHT22;10015;52.530;13.390;2023-05-21T04:23:36;17.30;99.90
19728;DHT22;10015;52.530;13.390;2023-05-21T04:26:08;17.30;99.90
19728;DHT22;10015;52.530;13.390;2023-05-21T04:28:34;17.40;99.90
19728;DHT22;10015;52.530;13.390;2023-05-21T04:31:00;17.40;99.90
19728;DHT22;10015;52.530;13.390;2023-05-21T04:33:26;17.50;99.90
19728;DHT22;10015;52.530;13.390;2023-05-21T04:35:54;17.50;99.90
19728;DHT22;10015;52.530;13.390;2023-05-21T04:38:20;17.60;99.90
19728;DHT22;10015;52.530;13.390;2023-05-21T04:40:50;17.60;99.90
19728;DHT22;10015;52.530;13.390;2023-05-21T04:43:17;17.70;99.90
19728;DHT22;10015;52.530;13.390;2023-05-21T04:45:44;17.80;99.90
19728;DHT22;10015;52.530;13.390;2023-05-21T04:48:11;17.80;99.90
19728;DHT22;10015;52.530;13.390;2023-05-21T04:50:37;17.90;99.90
19728;DHT22;10015;52.530;13.390;2023-05-21T04:53:03;18.00;99.90
19728;DHT22;10015;52.530;13.390;2023-05-21T04:55:29;18.00;99.90
19728;DHT22;10015;52.530;13.390;2023-05-21T04:57:55;18.10;99.90
19728;DHT22;10015;52.530;13.390;2023-05-21T05:00:22;18.00;99.90
19728;DHT22;10015;52.530;13.390;2023-05-21T05:02:50;18.10;99.90
19728;DHT22;10015;52.530;13.390;2023-05-21T05:05:16;18.20;99.90
19728;DHT22;10015;52.530;13.390;2023-05-21T05:07:42;18.30;99.90
19728;DHT22;10015;52.530;13.390;2023-05-21T05:10:08;18.20;99.90
19728;DHT22;10015;52.530;13.390;2023-05-21T05:12:34;18.30;99.90
19728;DHT22;10015;52.530;13.390;2023-05-21T05:15:00;18.40;99.90
19728;DHT22;10015;52.530;13.390;2023-05-21T05:17:26;18.40;99.90
19728;DHT22;10015;52.530;13.390;2023-05-21T05:19:52;18.50;99.90
19728;DHT22;10015;52.530;13.390;2023-05-21T05:22:18;18.60;99.90
19728;DHT22;10015;52.530;13.390;2023-05-21T05:24:45;18.60;99.90
19728;DHT22;10015;52.530;13.390;2023-05-21T05:27:11;18.60;99.90
19728;DHT22;10015;52.530;13.390;2023-05-21T05:29:37;18.60;99.90
19728;DHT22;10015;52.530;13.390;2023-05-21T05:32:03;18.50;99.90
19728;DHT22;10015;52.530;13.390;2023-05-21T05:34:30;18.60;99.90
19728;DHT22;10015;52.530;13.390;2023-05-21T05:36:57;18.80;99.90
19728;DHT22;10015;52.530;13.390;2023-05-21T05:39:23;18.80;99.90
19728;DHT22;10015;52.530;13.390;2023-05-21T05:41:50;19.00;99.90
19728;DHT22;10015;52.530;13.390;2023-05-21T05:44:16;18.90;99.90
19728;DHT22;10015;52.530;13.390;2023-05-21T05:46:43;18.90;99.90
19728;DHT22;10015;52.530;13.390;2023-05-21T05:49:09;18.90;99.90
19728;DHT22;10015;52.530;13.390;2023-05-21T05:51:35;18.90;99.90
19728;DHT22;10015;52.530;13.390;2023-05-21T05:54:02;19.00;99.90
19728;DHT22;10015;52.530;13.390;2023-05-21T05:56:28;19.20;99.90
19728;DHT22;10015;52.530;13.390;2023-05-21T05:58:54;19.30;99.90
19728;DHT22;10015;52.530;13.390;2023-05-21T06:01:20;19.40;99.90
19728;DHT22;10015;52.530;13.390;2023-05-21T06:03:49;19.50;99.90
19728;DHT22;10015;52.530;13.390;2023-05-21T06:06:17;19.50;99.90
19728;DHT22;10015;52.530;13.390;2023-05-21T06:08:43;19.50;99.90
19728;DHT22;10015;52.530;13.390;2023-05-21T06:11:11;19.60;99.90
19728;DHT22;10015;52.530;13.390;2023-05-21T06:13:37;19.50;99.90
19728;DHT22;10015;52.530;13.390;2023-05-21T06:16:04;19.50;99.90
19728;DHT22;10015;52.530;13.390;2023-05-21T06:18:31;19.50;99.90
19728;DHT22;10015;52.530;13.390;2023-05-21T06:20:57;19.50;99.90
19728;DHT22;10015;52.530;13.390;2023-05-21T06:23:23;19.70;99.90
19728;DHT22;10015;52.530;13.390;2023-05-21T06:25:49;19.60;99.90
19728;DHT22;10015;52.530;13.390;2023-05-21T06:28:15;19.60;99.90
19728;DHT22;10015;52.530;13.390;2023-05-21T06:30:42;19.50;99.90
19728;DHT22;10015;52.530;13.390;2023-05-21T06:33:08;19.30;99.90
19728;DHT22;10015;52.530;13.390;2023-05-21T06:35:36;19.30;99.90
19728;DHT22;10015;52.530;13.390;2023-05-21T06:38:04;19.30;99.90
19728;DHT22;10015;52.530;13.390;2023-05-21T06:40:30;19.20;99.90
19728;DHT22;10015;52.530;13.390;2023-05-21T06:42:57;19.30;99.90
19728;DHT22;10015;52.530;13.390;2023-05-21T06:45:45;19.40;99.90
19728;DHT22;10015;52.530;13.390;2023-05-21T06:48:25;19.50;99.90
19728;DHT22;10015;52.530;13.390;2023-05-21T06:50:51;19.40;99.90
19728;DHT22;10015;52.530;13.390;2023-05-21T06:53:18;19.50;99.90
19728;DHT22;10015;52.530;13.390;2023-05-21T06:55:44;19.50;99.90
19728;DHT22;10015;52.530;13.390;2023-05-21T06:58:18;19.50;99.90
19728;DHT22;10015;52.530;13.390;2023-05-21T07:00:43;19.50;99.90
19728;DHT22;10015;52.530;13.390;2023-05-21T07:03:09;19.60;99.90
19728;DHT22;10015;52.530;13.390;2023-05-21T07:05:35;19.60;99.90
19728;DHT22;10015;52.530;13.390;2023-05-21T07:08:01;19.60;99.90
19728;DHT22;10015;52.530;13.390;2023-05-21T07:10:28;19.70;99.90
19728;DHT22;10015;52.530;13.390;2023-05-21T07:12:54;19.80;99.90
19728;DHT22;10015;52.530;13.390;2023-05-21T07:15:20;19.90;99.90
19728;DHT22;10015;52.530;13.390;2023-05-21T07:17:46;20.00;99.90
19728;DHT22;10015;52.530;13.390;2023-05-21T07:20:13;20.10;99.90
19728;DHT22;10015;52.530;13.390;2023-05-21T07:22:50;20.30;99.90
19728;DHT22;10015;52.530;13.390;2023-05-21T07:25:16;20.60;99.90
19728;DHT22;10015;52.530;13.390;2023-05-21T07:27:42;20.90;99.90
19728;DHT22;10015;52.530;13.390;2023-05-21T07:30:08;21.10;99.90
19728;DHT22;10015;52.530;13.390;2023-05-21T07:32:37;21.30;99.90
19728;DHT22;10015;52.530;13.390;2023-05-21T07:35:03;21.40;99.90
19728;DHT22;10015;52.530;13.390;2023-05-21T07:37:30;21.50;99.90
19728;DHT22;10015;52.530;13.390;2023-05-21T07:39:56;21.70;99.90
19728;DHT22;10015;52.530;13.390;2023-05-21T07:42:26;21.90;99.90
19728;DHT22;10015;52.530;13.390;2023-05-21T07:44:54;22.10;99.90
19728;DHT22;10015;52.530;13.390;2023-05-21T07:47:22;22.10;99.90
19728;DHT22;10015;52.530;13.390;2023-05-21T07:49:49;22.30;99.90
19728;DHT22;10015;52.530;13.390;2023-05-21T07:52:15;22.40;99.90
19728;DHT22;10015;52.530;13.390;2023-05-21T07:54:41;22.50;99.90
19728;DHT22;10015;52.530;13.390;2023-05-21T07:57:07;22.50;99.90
19728;DHT22;10015;52.530;13.390;2023-05-21T08:00:06;22.70;99.90
19728;DHT22;10015;52.530;13.390;2023-05-21T08:02:41;22.80;99.90
19728;DHT22;10015;52.530;13.390;2023-05-21T08:05:08;22.90;99.90
19728;DHT22;10015;52.530;13.390;2023-05-21T08:07:35;23.10;99.90
19728;DHT22;10015;52.530;13.390;2023-05-21T08:10:02;23.20;99.90
19728;DHT22;10015;52.530;13.390;2023-05-21T08:12:29;23.30;99.90
19728;DHT22;10015;52.530;13.390;2023-05-21T08:14:56;23.40;99.90
19728;DHT22;10015;52.530;13.390;2023-05-21T08:17:22;23.60;99.90
19728;DHT22;10015;52.530;13.390;2023-05-21T08:19:48;23.70;99.90
19728;DHT22;10015;52.530;13.390;2023-05-21T08:22:14;23.80;99.90
19728;DHT22;10015;52.530;13.390;2023-05-21T08:24:44;23.80;99.90
19728;DHT22;10015;52.530;13.390;2023-05-21T08:27:10;24.00;99.90
19728;DHT22;10015;52.530;13.390;2023-05-21T08:29:35;24.10;99.90
19728;DHT22;10015;52.530;13.390;2023-05-21T08:32:04;24.00;99.90
19728;DHT22;10015;52.530;13.390;2023-05-21T08:34:30;23.80;99.90
19728;DHT22;10015;52.530;13.390;2023-05-21T08:37:12;24.00;99.90
19728;DHT22;10015;52.530;13.390;2023-05-21T08:39:57;24.00;99.90
19728;DHT22;10015;52.530;13.390;2023-05-21T08:42:47;24.00;99.90
19728;DHT22;10015;52.530;13.390;2023-05-21T08:45:21;24.20;99.90
19728;DHT22;10015;52.530;13.390;2023-05-21T08:47:55;24.40;99.90
19728;DHT22;10015;52.530;13.390;2023-05-21T08:50:25;24.30;99.90
19728;DHT22;10015;52.530;13.390;2023-05-21T08:52:53;24.30;99.90
19728;DHT22;10015;52.530;13.390;2023-05-21T08:55:20;24.40;99.90
19728;DHT22;10015;52.530;13.390;2023-05-21T08:57:48;24.60;99.90
19728;DHT22;10015;52.530;13.390;2023-05-21T09:00:17;24.80;99.90
19728;DHT22;10015;52.530;13.390;2023-05-21T09:02:42;24.80;99.90
19728;DHT22;10015;52.530;13.390;2023-05-21T09:05:12;24.90;99.90
19728;DHT22;10015;52.530;13.390;2023-05-21T09:07:48;25.00;99.90
19728;DHT22;10015;52.530;13.390;2023-05-21T09:10:50;25.00;99.90
19728;DHT22;10015;52.530;13.390;2023-05-21T09:13:17;25.00;99.90
19728;DHT22;10015;52.530;13.390;2023-05-21T09:15:47;25.00;99.90
19728;DHT22;10015;52.530;13.390;2023-05-21T09:18:14;25.10;99.90
19728;DHT22;10015;52.530;13.390;2023-05-21T09:20:53;25.20;99.90
19728;DHT22;10015;52.530;13.390;2023-05-21T09:23:21;25.30;99.90
19728;DHT22;10015;52.530;13.390;2023-05-21T09:25:49;25.20;99.90
19728;DHT22;10015;52.530;13.390;2023-05-21T09:28:24;25.00;99.90
19728;DHT22;10015;52.530;13.390;2023-05-21T09:30:53;25.00;99.90
19728;DHT22;10015;52.530;13.390;2023-05-21T09:33:26;25.10;99.90
19728;DHT22;10015;52.530;13.390;2023-05-21T09:35:52;25.10;99.90
19728;DHT22;10015;52.530;13.390;2023-05-21T09:38:21;25.10;99.90
19728;DHT22;10015;52.530;13.390;2023-05-21T09:40:48;25.10;99.90
19728;DHT22;10015;52.530;13.390;2023-05-21T09:43:15;25.20;99.90
19728;DHT22;10015;52.530;13.390;2023-05-21T09:45:54;25.30;99.90
19728;DHT22;10015;52.530;13.390;2023-05-21T09:48:40;25.50;99.90
19728;DHT22;10015;52.530;13.390;2023-05-21T09:51:17;25.60;99.90
19728;DHT22;10015;52.530;13.390;2023-05-21T09:56:12;25.70;99.90
19728;DHT22;10015;52.530;13.390;2023-05-21T09:58:38;25.70;99.90
19728;DHT22;10015;52.530;13.390;2023-05-21T10:01:06;25.70;99.90
19728;DHT22;10015;52.530;13.390;2023-05-21T10:03:32;25.80;99.90
19728;DHT22;10015;52.530;13.390;2023-05-21T10:06:01;25.90;99.90
19728;DHT22;10015;52.530;13.390;2023-05-21T10:08:30;25.90;99.90
19728;DHT22;10015;52.530;13.390;2023-05-21T10:10:59;26.00;99.90
19728;DHT22;10015;52.530;13.390;2023-05-21T10:13:26;26.10;99.90
19728;DHT22;10015;52.530;13.390;2023-05-21T10:15:58;26.20;99.90
19728;DHT22;10015;52.530;13.390;2023-05-21T10:18:26;26.30;99.90
19728;DHT22;10015;52.530;13.390;2023-05-21T10:20:53;26.30;99.90
19728;DHT22;10015;52.530;13.390;2023-05-21T10:23:19;26.40;99.90
19728;DHT22;10015;52.530;13.390;2023-05-21T10:25:48;26.50;99.90
19728;DHT22;10015;52.530;13.390;2023-05-21T10:28:16;26.70;99.90
19728;DHT22;10015;52.530;13.390;2023-05-21T10:30:43;26.80;99.90
19728;DHT22;10015;52.530;13.390;2023-05-21T10:33:14;26.90;99.90
19728;DHT22;10015;52.530;13.390;2023-05-21T10:35:41;26.90;99.90
19728;DHT22;10015;52.530;13.390;2023-05-21T10:38:09;26.90;99.90
19728;DHT22;10015;52.530;13.390;2023-05-21T10:40:36;26.80;99.90
19728;DHT22;10015;52.530;13.390;2023-05-21T10:51:42;26.80;99.90
19728;DHT22;10015;52.530;13.390;2023-05-21T11:00:06;26.80;99.90
19728;DHT22;10015;52.530;13.390;2023-05-21T11:02:33;26.90;99.90
19728;DHT22;10015;52.530;13.390;2023-05-21T11:05:00;26.80;99.90
19728;DHT22;10015;52.530;13.390;2023-05-21T11:07:52;26.80;99.90
19728;DHT22;10015;52.530;13.390;2023-05-21T11:10:52;26.70;99.90
19728;DHT22;10015;52.530;13.390;2023-05-21T11:13:18;26.70;99.90
19728;DHT22;10015;52.530;13.390;2023-05-21T11:21:03;26.50;99.90
19728;DHT22;10015;52.530;13.390;2023-05-21T11:26:20;26.50;99.90
19728;DHT22;10015;52.530;13.390;2023-05-21T11:28:50;26.50;99.90
19728;DHT22;10015;52.530;13.390;2023-05-21T11:31:32;26.60;99.90
19728;DHT22;10015;52.530;13.390;2023-05-21T11:36:44;26.80;99.90
19728;DHT22;10015;52.530;13.390;2023-05-21T11:39:13;26.90;99.90
19728;DHT22;10015;52.530;13.390;2023-05-21T11:41:56;26.90;99.90
19728;DHT22;10015;52.530;13.390;2023-05-21T11:47:06;27.00;99.90
19728;DHT22;10015;52.530;13.390;2023-05-21T11:49:33;27.00;99.90
19728;DHT22;10015;52.530;13.390;2023-05-21T11:51:59;27.10;99.90
19728;DHT22;10015;52.530;13.390;2023-05-21T11:54:25;27.20;99.90
19728;DHT22;10015;52.530;13.390;2023-05-21T11:56:53;27.30;99.90
19728;DHT22;10015;52.530;13.390;2023-05-21T11:59:19;27.30;99.90
19728;DHT22;10015;52.530;13.390;2023-05-21T12:01:45;27.30;99.90
19728;DHT22;10015;52.530;13.390;2023-05-21T12:04:11;27.30;99.90
19728;DHT22;10015;52.530;13.390;2023-05-21T12:06:37;27.40;99.90
19728;DHT22;10015;52.530;13.390;2023-05-21T12:09:11;27.40;99.90
19728;DHT22;10015;52.530;13.390;2023-05-21T12:11:37;27.40;99.90
19728;DHT22;10015;52.530;13.390;2023-05-21T12:14:10;27.50;99.90
19728;DHT22;10015;52.530;13.390;2023-05-21T12:16:36;27.50;99.90
19728;DHT22;10015;52.530;13.390;2023-05-21T12:19:03;27.50;99.90
19728;DHT22;10015;52.530;13.390;2023-05-21T12:21:30;27.30;99.90
19728;DHT22;10015;52.530;13.390;2023-05-21T12:23:57;27.30;99.90
19728;DHT22;10015;52.530;13.390;2023-05-21T12:26:24;27.30;99.90
19728;DHT22;10015;52.530;13.390;2023-05-21T12:28:54;27.30;99.90
19728;DHT22;10015;52.530;13.390;2023-05-21T12:31:21;27.50;99.90
19728;DHT22;10015;52.530;13.390;2023-05-21T12:33:48;27.50;99.90
19728;DHT22;10015;52.530;13.390;2023-05-21T12:36:25;27.30;99.90
19728;DHT22;10015;52.530;13.390;2023-05-21T12:38:52;27.10;99.90
19728;DHT22;10015;52.530;13.390;2023-05-21T12:41:18;27.10;99.90
19728;DHT22;10015;52.530;13.390;2023-05-21T12:43:45;27.10;99.90
19728;DHT22;10015;52.530;13.390;2023-05-21T12:46:11;27.20;99.90
19728;DHT22;10015;52.530;13.390;2023-05-21T12:48:54;27.10;99.90
19728;DHT22;10015;52.530;13.390;2023-05-21T12:51:20;27.20;99.90
19728;DHT22;10015;52.530;13.390;2023-05-21T12:53:46;27.30;99.90
19728;DHT22;10015;52.530;13.390;2023-05-21T12:56:14;27.30;99.90
19728;DHT22;10015;52.530;13.390;2023-05-21T12:58:41;27.30;99.90
19728;DHT22;10015;52.530;13.390;2023-05-21T13:01:08;27.30;99.90
19728;DHT22;10015;52.530;13.390;2023-05-21T13:03:34;27.30;99.90
19728;DHT22;10015;52.530;13.390;2023-05-21T13:06:10;27.40;99.90
19728;DHT22;10015;52.530;13.390;2023-05-21T13:08:36;27.50;99.90
19728;DHT22;10015;52.530;13.390;2023-05-21T13:11:03;27.50;99.90
19728;DHT22;10015;52.530;13.390;2023-05-21T13:13:29;27.60;99.90
19728;DHT22;10015;52.530;13.390;2023-05-21T13:15:55;27.60;99.90
19728;DHT22;10015;52.530;13.390;2023-05-21T13:18:21;27.60;99.90
19728;DHT22;10015;52.530;13.390;2023-05-21T13:20:47;27.30;99.90
19728;DHT22;10015;52.530;13.390;2023-05-21T13:23:14;27.20;99.90
19728;DHT22;10015;52.530;13.390;2023-05-21T13:25:42;27.10;99.90
19728;DHT22;10015;52.530;13.390;2023-05-21T13:28:08;26.90;99.90
19728;DHT22;10015;52.530;13.390;2023-05-21T13:30:37;26.80;99.90
19728;DHT22;10015;52.530;13.390;2023-05-21T13:33:05;26.80;99.90
19728;DHT22;10015;52.530;13.390;2023-05-21T13:35:31;26.80;99.90
19728;DHT22;10015;52.530;13.390;2023-05-21T13:37:57;26.80;99.90
19728;DHT22;10015;52.530;13.390;2023-05-21T13:40:23;26.70;99.90
19728;DHT22;10015;52.530;13.390;2023-05-21T13:42:49;26.60;99.90
19728;DHT22;10015;52.530;13.390;2023-05-21T13:45:17;26.50;99.90
19728;DHT22;10015;52.530;13.390;2023-05-21T13:47:44;26.50;99.90
19728;DHT22;10015;52.530;13.390;2023-05-21T13:50:10;26.60;99.90
19728;DHT22;10015;52.530;13.390;2023-05-21T13:52:36;26.70;99.90
19728;DHT22;10015;52.530;13.390;2023-05-21T13:55:03;26.80;99.90
19728;DHT22;10015;52.530;13.390;2023-05-21T13:57:29;26.90;99.90
19728;DHT22;10015;52.530;13.390;2023-05-21T13:59:56;27.10;99.90
19728;DHT22;10015;52.530;13.390;2023-05-21T14:02:22;27.10;99.90
19728;DHT22;10015;52.530;13.390;2023-05-21T14:04:48;27.10;99.90
19728;DHT22;10015;52.530;13.390;2023-05-21T14:07:17;27.00;99.90
19728;DHT22;10015;52.530;13.390;2023-05-21T14:09:43;26.90;99.90
19728;DHT22;10015;52.530;13.390;2023-05-21T14:12:09;26.70;99.90
19728;DHT22;10015;52.530;13.390;2023-05-21T14:14:36;26.70;99.90
19728;DHT22;10015;52.530;13.390;2023-05-21T14:17:02;26.70;99.90
19728;DHT22;10015;52.530;13.390;2023-05-21T14:19:28;26.80;99.90
19728;DHT22;10015;52.530;13.390;2023-05-21T14:21:54;26.90;99.90
19728;DHT22;10015;52.530;13.390;2023-05-21T14:24:21;27.00;99.90
19728;DHT22;10015;52.530;13.390;2023-05-21T14:26:46;27.00;99.90
19728;DHT22;10015;52.530;13.390;2023-05-21T14:29:13;27.00;99.90
19728;DHT22;10015;52.530;13.390;2023-05-21T14:31:39;26.90;99.90
19728;DHT22;10015;52.530;13.390;2023-05-21T14:34:05;26.90;99.90
19728;DHT22;10015;52.530;13.390;2023-05-21T14:36:34;26.90;99.90
19728;DHT22;10015;52.530;13.390;2023-05-21T14:39:00;26.90;99.90
19728;DHT22;10015;52.530;13.390;2023-05-21T14:41:26;26.80;99.90
19728;DHT22;10015;52.530;13.390;2023-05-21T14:43:53;26.80;99.90
19728;DHT22;10015;52.530;13.390;2023-05-21T14:46:19;26.90;99.90
19728;DHT22;10015;52.530;13.390;2023-05-21T14:48:45;26.90;99.90
19728;DHT22;10015;52.530;13.390;2023-05-21T14:51:12;27.00;99.90
19728;DHT22;10015;52.530;13.390;2023-05-21T14:53:38;27.00;99.90
19728;DHT22;10015;52.530;13.390;2023-05-21T14:56:05;26.90;99.90
19728;DHT22;10015;52.530;13.390;2023-05-21T14:58:31;26.90;99.90
19728;DHT22;10015;52.530;13.390;2023-05-21T15:00:57;26.90;99.90
19728;DHT22;10015;52.530;13.390;2023-05-21T15:03:23;27.00;99.90
19728;DHT22;10015;52.530;13.390;2023-05-21T15:05:49;27.00;99.90
19728;DHT22;10015;52.530;13.390;2023-05-21T15:08:15;27.00;99.90
19728;DHT22;10015;52.530;13.390;2023-05-21T15:10:41;27.00;99.90
19728;DHT22;10015;52.530;13.390;2023-05-21T15:13:07;27.00;99.90
19728;DHT22;10015;52.530;13.390;2023-05-21T15:15:33;27.00;99.90
19728;DHT22;10015;52.530;13.390;2023-05-21T15:17:59;27.00;99.90
19728;DHT22;10015;52.530;13.390;2023-05-21T15:20:25;27.00;99.90
19728;DHT22;10015;52.530;13.390;2023-05-21T15:22:52;27.00;99.90
19728;DHT22;10015;52.530;13.390;2023-05-21T15:25:18;26.90;99.90
19728;DHT22;10015;52.530;13.390;2023-05-21T15:27:45;27.00;99.90
19728;DHT22;10015;52.530;13.390;2023-05-21T15:30:11;26.90;99.90
19728;DHT22;10015;52.530;13.390;2023-05-21T15:32:37;26.90;99.90
19728;DHT22;10015;52.530;13.390;2023-05-21T15:35:03;26.80;99.90
19728;DHT22;10015;52.530;13.390;2023-05-21T15:37:29;26.80;99.90
19728;DHT22;10015;52.530;13.390;2023-05-21T15:39:57;26.70;99.90
19728;DHT22;10015;52.530;13.390;2023-05-21T15:42:23;26.60;99.90
19728;DHT22;10015;52.530;13.390;2023-05-21T15:44:48;26.50;99.90
19728;DHT22;10015;52.530;13.390;2023-05-21T15:47:14;26.50;99.90
19728;DHT22;10015;52.530;13.390;2023-05-21T15:49:40;26.50;99.90
19728;DHT22;10015;52.530;13.390;2023-05-21T15:52:06;26.50;99.90